CGPZT CYXU-CYXU
Flight info
| Callsign | CGPZT |
|---|---|
| Flight time | 0h 3m |
| Altitude | 2000 |
| Route | CIRCUITS |
| Aircraft | C152 |
Departure
| Time | 2026-04-24 22:35 |
|---|---|
| Airport | London International Airport (CYXU) |
Arrival
| Time | 2026-04-24 22:39 |
|---|---|
| Airport | London International Airport (CYXU) |
| Time | Latitude | Longitude | Altitude | Speed | Heading |
|---|---|---|---|---|---|
| 2026-04-24 22:29 | 43.03569 | -81.16236 | 908 ft | 0 kts | 254° |
| 2026-04-24 22:31 | 43.03569 | -81.16237 | 908 ft | 0 kts | 252° |
| 2026-04-24 22:31 | 43.03591 | -81.16260 | 909 ft | 12 kts | 4° |
| 2026-04-24 22:31 | 43.03679 | -81.16274 | 910 ft | 12 kts | 347° |
| 2026-04-24 22:32 | 43.03721 | -81.16286 | 910 ft | 0 kts | 350° |
| 2026-04-24 22:33 | 43.03721 | -81.16285 | 910 ft | 0 kts | 354° |
| 2026-04-24 22:34 | 43.03763 | -81.16296 | 911 ft | 14 kts | 352° |
| 2026-04-24 22:34 | 43.03829 | -81.16195 | 911 ft | 19 kts | 72° |
| 2026-04-24 22:34 | 43.03887 | -81.15798 | 911 ft | 64 kts | 78° |
| 2026-04-24 22:34 | 43.04010 | -81.15109 | 1039 ft | 78 kts | 80° |
| 2026-04-24 22:35 | 43.04171 | -81.14402 | 1258 ft | 76 kts | 83° |
| 2026-04-24 22:35 | 43.03995 | -81.13826 | 1456 ft | 75 kts | 154° |
| 2026-04-24 22:35 | 43.03456 | -81.13710 | 1611 ft | 84 kts | 172° |
| 2026-04-24 22:35 | 43.02874 | -81.13749 | 1827 ft | 83 kts | 176° |
| 2026-04-24 22:36 | 43.02375 | -81.14254 | 1935 ft | 102 kts | 239° |
| 2026-04-24 22:36 | 43.02293 | -81.15307 | 1928 ft | 115 kts | 271° |
| 2026-04-24 22:36 | 43.02179 | -81.16452 | 1764 ft | 124 kts | 253° |
| 2026-04-24 22:36 | 43.01946 | -81.17549 | 1837 ft | 115 kts | 248° |
| 2026-04-24 22:37 | 43.01677 | -81.18604 | 1768 ft | 119 kts | 248° |
| 2026-04-24 22:37 | 43.01797 | -81.19661 | 1832 ft | 115 kts | 312° |
| 2026-04-24 22:37 | 43.02433 | -81.20107 | 1921 ft | 102 kts | 15° |
| 2026-04-24 22:37 | 43.03084 | -81.19617 | 1669 ft | 113 kts | 48° |
| 2026-04-24 22:38 | 43.03468 | -81.18792 | 1474 ft | 97 kts | 78° |
| 2026-04-24 22:38 | 43.03578 | -81.18017 | 1324 ft | 70 kts | 87° |
| 2026-04-24 22:38 | 43.03668 | -81.17387 | 1174 ft | 67 kts | 82° |
| 2026-04-24 22:38 | 43.03751 | -81.16773 | 1070 ft | 65 kts | 87° |
| 2026-04-24 22:39 | 43.03833 | -81.16191 | 929 ft | 58 kts | 85° |
| 2026-04-24 22:39 | 43.03894 | -81.15742 | 911 ft | 40 kts | 79° |
| 2026-04-24 22:39 | 43.03999 | -81.15212 | 969 ft | 69 kts | 76° |
| 2026-04-24 22:39 | 43.04184 | -81.14570 | 1172 ft | 71 kts | 78° |
| 2026-04-24 22:40 | 43.04363 | -81.13957 | 1394 ft | 70 kts | 76° |
| 2026-04-24 22:40 | 43.04565 | -81.13315 | 1575 ft | 77 kts | 82° |
| 2026-04-24 22:40 | 43.04323 | -81.12780 | 1807 ft | 78 kts | 166° |
| 2026-04-24 22:40 | 43.03792 | -81.12732 | 2057 ft | 75 kts | 172° |
| 2026-04-24 22:41 | 43.03195 | -81.12794 | 1928 ft | 99 kts | 200° |
| 2026-04-24 22:41 | 43.02852 | -81.13568 | 2020 ft | 103 kts | 263° |
| 2026-04-24 22:41 | 43.02855 | -81.14599 | 1952 ft | 116 kts | 273° |
| 2026-04-24 22:41 | 43.02836 | -81.15682 | 1943 ft | 116 kts | 258° |
| 2026-04-24 22:42 | 43.02661 | -81.16734 | 2035 ft | 110 kts | 252° |
| 2026-04-24 22:42 | 43.02521 | -81.17761 | 2036 ft | 108 kts | 277° |
| 2026-04-24 22:42 | 43.03027 | -81.18526 | 1765 ft | 117 kts | 345° |
| 2026-04-24 22:42 | 43.03632 | -81.18380 | 1683 ft | 84 kts | 77° |
| 2026-04-24 22:43 | 43.03629 | -81.17604 | 1291 ft | 78 kts | 86° |
| 2026-04-24 22:43 | 43.03730 | -81.16935 | 1088 ft | 67 kts | 86° |
| 2026-04-24 22:43 | 43.03815 | -81.16314 | 946 ft | 65 kts | 85° |
| 2026-04-24 22:43 | 43.03886 | -81.15794 | 911 ft | 44 kts | 80° |
| 2026-04-24 22:44 | 43.03958 | -81.15306 | 915 ft | 70 kts | 81° |
| 2026-04-24 22:44 | 43.04094 | -81.14636 | 1095 ft | 76 kts | 79° |
| 2026-04-24 22:44 | 43.04216 | -81.13948 | 1313 ft | 71 kts | 110° |
| 2026-04-24 22:44 | 43.03780 | -81.13612 | 1476 ft | 78 kts | 156° |
| 2026-04-24 22:45 | 43.03281 | -81.13355 | 1671 ft | 76 kts | 163° |
| 2026-04-24 22:45 | 43.02842 | -81.13803 | 1855 ft | 95 kts | 253° |
| 2026-04-24 22:45 | 43.02849 | -81.14778 | 1871 ft | 107 kts | 268° |
| 2026-04-24 22:45 | 43.02712 | -81.15766 | 1907 ft | 109 kts | 250° |
| 2026-04-24 22:46 | 43.02530 | -81.16783 | 1948 ft | 114 kts | 253° |
| 2026-04-24 22:46 | 43.02341 | -81.17829 | 1975 ft | 104 kts | 254° |
| 2026-04-24 22:46 | 43.02420 | -81.18782 | 1890 ft | 103 kts | 310° |
| 2026-04-24 22:46 | 43.03103 | -81.19080 | 1677 ft | 109 kts | 359° |
| 2026-04-24 22:47 | 43.03735 | -81.18914 | 1556 ft | 81 kts | 71° |
| 2026-04-24 22:47 | 43.03619 | -81.18218 | 1305 ft | 75 kts | 111° |
| 2026-04-24 22:47 | 43.03636 | -81.17582 | 1212 ft | 65 kts | 86° |
| 2026-04-24 22:47 | 43.03731 | -81.16967 | 1088 ft | 66 kts | 86° |
| 2026-04-24 22:48 | 43.03808 | -81.16358 | 954 ft | 63 kts | 85° |
| 2026-04-24 22:48 | 43.03883 | -81.15835 | 911 ft | 45 kts | 85° |
| 2026-04-24 22:48 | 43.03939 | -81.15421 | 912 ft | 58 kts | 78° |
| 2026-04-24 22:48 | 43.04069 | -81.14775 | 1028 ft | 76 kts | 77° |
| 2026-04-24 22:49 | 43.04255 | -81.14120 | 1276 ft | 72 kts | 77° |
| 2026-04-24 22:49 | 43.04423 | -81.13462 | 1455 ft | 75 kts | 89° |
| 2026-04-24 22:49 | 43.04247 | -81.12810 | 1674 ft | 73 kts | 134° |
| 2026-04-24 22:49 | 43.03762 | -81.12606 | 1893 ft | 71 kts | 165° |
| 2026-04-24 22:50 | 43.03212 | -81.12614 | 1907 ft | 88 kts | 201° |
| 2026-04-24 22:50 | 43.02816 | -81.13320 | 1920 ft | 103 kts | 261° |
| 2026-04-24 22:50 | 43.02841 | -81.14383 | 1868 ft | 117 kts | 265° |
| 2026-04-24 22:50 | 43.02797 | -81.15505 | 1876 ft | 119 kts | 259° |
| 2026-04-24 22:51 | 43.02610 | -81.16596 | 1879 ft | 117 kts | 250° |
| 2026-04-24 22:51 | 43.02367 | -81.17634 | 1912 ft | 105 kts | 251° |
| 2026-04-24 22:51 | 43.02574 | -81.18533 | 1790 ft | 104 kts | 328° |
| 2026-04-24 22:51 | 43.03227 | -81.18792 | 1711 ft | 91 kts | 28° |
| 2026-04-24 22:52 | 43.03554 | -81.18114 | 1444 ft | 90 kts | 81° |
| 2026-04-24 22:52 | 43.03674 | -81.17327 | 1221 ft | 78 kts | 83° |
| 2026-04-24 22:52 | 43.03770 | -81.16637 | 1006 ft | 68 kts | 84° |
| 2026-04-24 22:52 | 43.03853 | -81.16053 | 914 ft | 54 kts | 85° |
| 2026-04-24 22:53 | 43.03909 | -81.15642 | 910 ft | 44 kts | 79° |
| 2026-04-24 22:53 | 43.04014 | -81.15085 | 993 ft | 69 kts | 78° |
| 2026-04-24 22:53 | 43.04186 | -81.14450 | 1211 ft | 70 kts | 75° |
| 2026-04-24 22:53 | 43.04291 | -81.13827 | 1430 ft | 66 kts | 108° |
| 2026-04-24 22:54 | 43.03938 | -81.13413 | 1606 ft | 76 kts | 162° |
| 2026-04-24 22:54 | 43.03407 | -81.13344 | 1791 ft | 81 kts | 195° |
| 2026-04-24 22:54 | 43.02962 | -81.13888 | 1875 ft | 98 kts | 237° |
| 2026-04-24 22:54 | 43.02827 | -81.14838 | 1851 ft | 109 kts | 270° |
| 2026-04-24 22:55 | 43.02840 | -81.15889 | 1839 ft | 111 kts | 263° |
| 2026-04-24 22:55 | 43.02663 | -81.16886 | 1824 ft | 105 kts | 249° |
| 2026-04-24 22:55 | 43.02601 | -81.17786 | 1873 ft | 92 kts | 289° |
| 2026-04-24 22:55 | 43.03118 | -81.18296 | 1752 ft | 99 kts | 356° |
| 2026-04-24 22:56 | 43.03665 | -81.17997 | 1628 ft | 82 kts | 77° |
| 2026-04-24 22:56 | 43.03677 | -81.17263 | 1215 ft | 75 kts | 87° |
| 2026-04-24 22:56 | 43.03769 | -81.16623 | 997 ft | 63 kts | 86° |
| 2026-04-24 22:56 | 43.03850 | -81.16096 | 910 ft | 46 kts | 83° |
| 2026-04-24 22:57 | 43.03861 | -81.15899 | 910 ft | 9 kts | 93° |
| 2026-04-24 22:57 | 43.03832 | -81.15845 | 909 ft | 6 kts | 140° |
| 2026-04-24 22:57 | 43.03818 | -81.15830 | 908 ft | 0 kts | 139° |
| 2026-04-24 22:57 | 43.03811 | -81.15822 | 908 ft | 4 kts | 140° |
| 2026-04-24 22:58 | 43.03792 | -81.15799 | 907 ft | 4 kts | 137° |
| 2026-04-24 22:58 | 43.03762 | -81.15764 | 907 ft | 7 kts | 140° |
| 2026-04-24 22:58 | 43.03738 | -81.15734 | 907 ft | 3 kts | 144° |
| 2026-04-24 22:58 | 43.03694 | -81.15811 | 906 ft | 17 kts | 255° |
| 2026-04-24 22:59 | 43.03668 | -81.15984 | 908 ft | 19 kts | 255° |
| 2026-04-24 22:59 | 43.03644 | -81.16151 | 909 ft | 17 kts | 258° |
| 2026-04-24 22:59 | 43.03530 | -81.16140 | 906 ft | 0 kts | 77° |